Time;durP1;ratioP1;P1;durP2;ratioP2;P2;SDS_P1;SDS_P2;PMS_P1;PMS_P2;Temp;Humidity;BMP_temperature;BMP_pressure;BME280_temperature;BME280_humidity;BME280_pressure;Samples;Min_cycle;Max_cycle;Signal;HPM_P1;HPM_P2
2022/04/01 01:16:32;;;;;;;14.45;4.30;;;;;;;2.03;74.32;99888.75;5063902;28;20059;-73
2022/04/01 01:19:01;;;;;;;6.18;3.25;;;;;;;2.23;73.38;99893.28;5069245;28;20487;-73
2022/04/01 01:21:28;;;;;;;10.50;3.40;;;;;;;2.30;72.54;99889.59;5070739;28;20504;-73
2022/04/01 01:23:59;;;;;;;5.25;2.60;;;;;;;2.37;70.00;99889.38;5070830;28;20558;-72
2022/04/01 01:26:27;;;;;;;5.20;2.70;;;;;;;2.31;69.67;99893.91;5071234;28;20041;-72
2022/04/01 01:28:56;;;;;;;7.68;3.35;;;;;;;2.49;68.21;99892.47;5070181;28;20045;-73
2022/04/01 01:31:22;;;;;;;7.07;3.53;;;;;;;2.23;68.45;99888.97;5053983;28;20488;-72
2022/04/01 01:33:49;;;;;;;8.93;3.83;;;;;;;2.30;68.16;99894.78;5061060;28;20041;-72
2022/04/01 01:36:16;;;;;;;6.50;3.28;;;;;;;2.27;68.38;99893.16;5067577;28;20044;-72
2022/04/01 01:38:43;;;;;;;6.47;3.33;;;;;;;2.38;68.74;99896.25;5055892;28;20048;-73
2022/04/01 01:41:09;;;;;;;11.63;3.53;;;;;;;2.38;68.54;99888.47;5067623;28;20103;-72
2022/04/01 01:43:37;;;;;;;6.28;2.45;;;;;;;2.17;69.49;99885.72;5067582;28;20044;-72
2022/04/01 01:46:03;;;;;;;8.48;3.92;;;;;;;2.09;69.79;99883.38;5066265;28;20044;-72
2022/04/01 01:48:29;;;;;;;5.50;3.05;;;;;;;2.37;69.39;99881.59;5054922;28;20350;-72
2022/04/01 01:56:24;;;;;;;6.75;3.38;;;;;;;2.30;70.03;99881.84;5065358;28;20122;-72
2022/04/01 01:58:51;;;;;;;10.23;3.22;;;;;;;2.20;70.67;99881.31;5053290;28;20076;-72
2022/04/01 02:01:18;;;;;;;7.07;3.17;;;;;;;2.48;70.22;99881.25;5067013;28;20048;-72
2022/04/01 02:03:44;;;;;;;9.32;3.60;;;;;;;2.88;68.77;99878.22;5068227;28;20501;-72
2022/04/01 02:06:10;;;;;;;8.13;3.30;;;;;;;2.70;68.39;99879.66;5069559;28;20045;-72
2022/04/01 02:08:37;;;;;;;6.18;3.22;;;;;;;2.82;67.77;99868.91;5053474;28;20079;-72
2022/04/01 02:11:03;;;;;;;8.27;3.33;;;;;;;2.30;68.77;99874.09;5062323;28;20041;-72
2022/04/01 02:13:31;;;;;;;10.27;3.40;;;;;;;2.52;67.41;99877.69;5069554;28;20044;-72
2022/04/01 02:15:59;;;;;;;10.07;3.65;;;;;;;2.55;65.13;99874.97;5068254;28;20045;-72
2022/04/01 02:18:26;;;;;;;6.57;2.92;;;;;;;2.66;65.32;99875.47;5070031;28;20040;-73
2022/04/01 02:20:53;;;;;;;12.80;3.67;;;;;;;2.37;69.16;99881.59;5066146;28;20045;-72
2022/04/01 02:23:19;;;;;;;10.32;3.83;;;;;;;2.20;71.59;99883.03;5069832;28;20493;-72
2022/04/01 02:25:46;;;;;;;6.90;3.30;;;;;;;2.19;72.55;99887.38;5068621;28;20530;-73
2022/04/01 02:28:12;;;;;;;6.80;3.35;;;;;;;2.28;72.19;99881.91;5070134;28;20492;-72
2022/04/01 02:30:39;;;;;;;9.18;3.50;;;;;;;2.38;72.09;99885.91;5067709;28;20485;-73
2022/04/01 02:33:07;;;;;;;6.53;3.22;;;;;;;2.72;70.91;99890.81;5068331;28;20067;-73
2022/04/01 02:35:34;;;;;;;7.07;3.20;;;;;;;2.60;70.41;99885.19;5067019;28;20125;-74
2022/04/01 02:38:01;;;;;;;5.97;3.17;;;;;;;2.60;69.20;99885.19;5069154;28;20040;-73
2022/04/01 02:40:28;;;;;;;9.93;3.40;;;;;;;2.74;67.91;99885.56;5066827;28;20044;-73
2022/04/01 02:42:54;;;;;;;8.95;3.67;;;;;;;3.01;65.94;99889.84;5069452;28;20040;-73
2022/04/01 02:45:23;;;;;;;6.15;3.17;;;;;;;3.04;65.72;99887.13;5067458;28;20048;-73
2022/04/01 02:47:50;;;;;;;5.95;2.65;;;;;;;2.96;65.23;99888.31;5061560;28;20056;-73
2022/04/01 02:50:18;;;;;;;6.65;3.80;;;;;;;3.05;62.20;99898.34;5067631;28;20044;-73
2022/04/01 02:52:44;;;;;;;7.10;3.35;;;;;;;3.20;61.87;99892.63;5064619;28;20068;-73
2022/04/01 02:55:11;;;;;;;7.38;3.40;;;;;;;2.96;61.55;99896.09;5054360;28;20045;-73
2022/04/01 02:57:38;;;;;;;6.70;3.53;;;;;;;2.70;62.48;99902.09;5059479;28;20566;-73
2022/04/01 03:00:09;;;;;;;9.35;3.22;;;;;;;2.84;63.69;99911.13;5058989;28;20049;-73
2022/04/01 03:02:35;;;;;;;9.07;3.80;;;;;;;2.99;65.56;99896.81;5068282;28;20048;-73
2022/04/01 03:05:03;;;;;;;8.88;3.70;;;;;;;2.94;66.39;99909.91;5062090;28;20044;-73
2022/04/01 03:07:30;;;;;;;6.50;3.58;;;;;;;2.45;66.94;99910.66;5064092;28;20408;-73
2022/04/01 03:09:57;;;;;;;6.25;3.20;;;;;;;2.18;68.08;99911.53;5068119;28;20098;-73
2022/04/01 03:12:23;;;;;;;9.10;3.53;;;;;;;2.40;68.02;99909.97;5067662;28;20421;-73
2022/04/01 03:14:51;;;;;;;8.13;4.05;;;;;;;2.18;68.81;99911.53;5064949;28;20052;-73
2022/04/01 03:17:17;;;;;;;7.15;3.90;;;;;;;2.37;68.19;99916.97;5068598;28;20070;-73
2022/04/01 03:19:46;;;;;;;6.55;3.03;;;;;;;1.88;68.98;99910.75;5067962;28;20044;-73
2022/04/01 03:22:12;;;;;;;12.63;4.28;;;;;;;1.95;68.52;99908.81;5068141;28;20048;-73
2022/04/01 03:24:41;;;;;;;9.25;3.97;;;;;;;2.06;68.70;99916.25;5068131;28;20070;-73
2022/04/01 03:27:07;;;;;;;6.65;3.92;;;;;;;2.12;69.25;99918.63;5068681;28;20105;-73
2022/04/01 03:29:34;;;;;;;8.15;3.65;;;;;;;2.33;68.42;99920.53;5067101;28;20044;-73
2022/04/01 03:32:00;;;;;;;10.52;4.15;;;;;;;2.48;67.77;99919.25;5066209;28;20101;-73
2022/04/01 03:34:27;;;;;;;7.90;4.07;;;;;;;2.64;66.79;99925.59;5067426;28;20070;-73
2022/04/01 03:36:54;;;;;;;7.03;3.80;;;;;;;2.43;66.35;99921.97;5066427;28;20439;-72
2022/04/01 03:39:22;;;;;;;12.35;3.78;;;;;;;2.43;66.59;99927.16;5066600;28;20127;-74
2022/04/01 03:41:50;;;;;;;9.73;3.72;;;;;;;2.48;66.30;99925.25;5065382;28;20062;-72
2022/04/01 03:44:17;;;;;;;8.20;3.58;;;;;;;2.50;66.30;99931.22;5067949;28;20040;-72
2022/04/01 03:46:48;;;;;;;8.48;3.40;;;;;;;2.58;65.94;99928.41;5067955;28;20058;-72
2022/04/01 03:49:18;;;;;;;6.22;3.65;;;;;;;2.21;67.19;99931.28;5066085;28;20099;-71
2022/04/01 03:51:49;;;;;;;6.35;3.50;;;;;;;2.46;67.27;99921.88;5066803;28;20090;-71
2022/04/01 03:54:16;;;;;;;7.82;3.22;;;;;;;2.14;68.96;99925.47;5067899;28;20036;-71
2022/04/01 03:56:45;;;;;;;8.57;3.40;;;;;;;2.40;68.58;99933.25;5055256;28;20103;-71
2022/04/01 03:59:13;;;;;;;7.38;4.03;;;;;;;2.30;68.87;99933.59;5061400;28;20071;-71
2022/04/01 04:01:39;;;;;;;8.38;3.72;;;;;;;2.15;69.54;99937.47;5066834;28;20491;-71
2022/04/01 04:04:07;;;;;;;12.35;4.00;;;;;;;2.29;69.01;99929.31;5066557;28;20463;-71
2022/04/01 04:06:36;;;;;;;9.77;3.33;;;;;;;1.92;70.54;99934.75;5067498;28;20048;-71
2022/04/01 04:09:03;;;;;;;6.20;3.47;;;;;;;2.05;70.02;99938.66;5066186;28;20056;-70
2022/04/01 04:11:32;;;;;;;7.40;3.65;;;;;;;1.92;70.36;99932.16;5067006;28;20079;-70
2022/04/01 04:14:00;;;;;;;7.88;3.47;;;;;;;1.77;69.82;99932.63;5068007;28;20515;-70
2022/04/01 04:16:30;;;;;;;7.97;3.38;;;;;;;1.76;70.25;99938.66;5067608;28;20044;-70
2022/04/01 04:19:04;;;;;;;9.00;4.22;;;;;;;1.73;70.93;99942.19;5067431;28;20049;-70
2022/04/01 04:21:32;;;;;;;6.28;3.22;;;;;;;1.75;71.69;99942.13;5063781;28;20041;-70
2022/04/01 04:23:59;;;;;;;11.60;3.72;;;;;;;1.85;70.89;99939.22;5051952;28;20463;-70
2022/04/01 04:26:31;;;;;;;7.25;3.38;;;;;;;1.81;70.85;99941.97;5067620;28;20485;-70
2022/04/01 04:29:03;;;;;;;7.47;3.10;;;;;;;1.69;70.53;99953.50;5067309;28;20041;-71
2022/04/01 04:31:35;;;;;;;12.80;4.35;;;;;;;1.50;70.03;99948.88;5064769;28;20292;-71
2022/04/01 04:34:05;;;;;;;5.85;3.47;;;;;;;1.41;69.77;99953.41;5066922;28;20110;-70
2022/04/01 04:36:36;;;;;;;6.10;3.53;;;;;;;1.28;70.52;99964.09;5066023;28;20041;-72
2022/04/01 04:39:05;;;;;;;7.68;3.80;;;;;;;1.38;70.17;99958.66;5066041;28;20052;-72
2022/04/01 04:41:33;;;;;;;7.15;3.88;;;;;;;1.43;69.79;99955.94;5066457;28;20049;-72
2022/04/01 04:44:00;;;;;;;7.25;3.28;;;;;;;1.29;69.73;99955.47;5068175;28;20049;-72
2022/04/01 04:46:27;;;;;;;5.30;3.63;;;;;;;1.50;69.49;99959.22;5067091;28;20040;-72
2022/04/01 04:48:55;;;;;;;7.88;3.75;;;;;;;1.43;70.78;99951.63;5066006;28;20114;-72
2022/04/01 04:51:24;;;;;;;7.15;4.18;;;;;;;1.07;71.75;99957.78;5062419;28;20056;-72
2022/04/01 04:53:51;;;;;;;10.57;4.93;;;;;;;1.23;71.66;99963.38;5067753;28;20045;-72
2022/04/01 04:56:19;;;;;;;8.65;3.70;;;;;;;1.17;71.57;99958.38;5067181;28;20040;-72
2022/04/01 04:58:45;;;;;;;9.20;4.15;;;;;;;1.14;71.44;99967.06;5065205;28;20245;-72
2022/04/01 05:01:24;;;;;;;6.50;3.50;;;;;;;1.17;71.76;99966.13;5064954;28;20456;-72
2022/04/01 05:04:27;;;;;;;9.13;3.60;;;;;;;1.04;71.78;99968.16;5058469;28;20532;-71
2022/04/01 05:07:08;;;;;;;5.85;2.95;;;;;;;0.98;71.90;99970.91;5059864;28;20041;-71
2022/04/01 05:09:41;;;;;;;6.65;3.40;;;;;;;1.08;71.33;99972.34;5069649;28;20090;-71
2022/04/01 05:12:17;;;;;;;7.50;3.17;;;;;;;0.93;71.61;99968.44;5070450;28;20412;-72
2022/04/01 05:14:57;;;;;;;7.90;3.45;;;;;;;0.90;72.07;99975.41;5071036;28;20044;-72
2022/04/01 05:17:27;;;;;;;7.15;4.03;;;;;;;1.05;70.88;99971.59;5068011;28;20105;-72
2022/04/01 05:20:00;;;;;;;10.25;4.03;;;;;;;1.26;69.11;99978.78;5069987;28;20854;-72
2022/04/01 05:22:37;;;;;;;8.30;3.70;;;;;;;1.24;69.09;99981.41;5060561;28;20037;-72
2022/04/01 05:25:05;;;;;;;7.70;3.65;;;;;;;1.31;68.02;99974.34;5064243;28;20062;-72
2022/04/01 05:27:40;;;;;;;13.88;4.00;;;;;;;1.48;67.47;99973.91;5071201;28;20082;-72
2022/04/01 05:30:13;;;;;;;8.40;3.40;;;;;;;1.49;67.39;99976.44;5068804;28;20072;-72
2022/04/01 05:32:41;;;;;;;7.15;3.90;;;;;;;1.73;66.71;99977.53;5069326;28;20045;-71
2022/04/01 05:35:09;;;;;;;7.25;4.07;;;;;;;1.93;66.11;99977.78;5068322;28;20045;-71
2022/04/01 05:37:36;;;;;;;7.05;3.78;;;;;;;1.78;66.31;99983.38;5069176;28;20522;-71
2022/04/01 05:40:05;;;;;;;6.28;3.60;;;;;;;1.76;66.38;99993.78;5069863;28;20041;-71
2022/04/01 05:42:33;;;;;;;6.88;3.75;;;;;;;1.83;65.90;99982.38;5071124;28;20048;-71
2022/04/01 05:45:00;;;;;;;8.65;4.18;;;;;;;1.97;65.83;99987.16;5070399;28;20423;-71
2022/04/01 05:47:30;;;;;;;9.40;3.90;;;;;;;1.99;65.61;99972.47;5070289;28;20093;-72
2022/04/01 05:49:59;;;;;;;8.73;4.22;;;;;;;2.00;64.72;99973.28;5069586;28;20048;-68
2022/04/01 05:52:29;;;;;;;8.00;3.83;;;;;;;1.99;62.73;99974.19;5070478;28;20045;-68
2022/04/01 05:54:57;;;;;;;8.95;3.85;;;;;;;2.25;60.30;99985.47;5070491;28;20148;-68
2022/04/01 05:57:23;;;;;;;8.80;3.85;;;;;;;2.43;58.48;99979.75;5070512;28;20046;-68
2022/04/01 05:59:50;;;;;;;8.90;4.10;;;;;;;2.14;55.96;99984.94;5070186;28;20080;-68
2022/04/01 06:02:35;;;;;;;10.93;3.28;;;;;;;2.04;56.11;99977.47;5070412;28;20045;-68
2022/04/01 06:05:10;;;;;;;7.47;3.42;;;;;;;2.10;55.09;99991.09;5070049;28;20098;-68
2022/04/01 06:07:45;;;;;;;9.43;3.60;;;;;;;1.98;54.84;99983.69;5069252;28;20090;-68
2022/04/01 06:10:21;;;;;;;7.10;3.50;;;;;;;1.87;54.89;99991.75;5069777;28;20051;-68
2022/04/01 06:12:59;;;;;;;7.72;3.72;;;;;;;1.82;54.60;99993.59;5070190;28;20086;-68
2022/04/01 06:15:32;;;;;;;5.82;3.47;;;;;;;1.67;55.09;100000.94;5070198;28;20044;-68
2022/04/01 06:18:07;;;;;;;7.47;3.40;;;;;;;1.68;54.62;100000.91;5069075;28;20036;-68
2022/04/01 06:20:36;;;;;;;7.07;3.58;;;;;;;1.72;54.04;100005.09;5055275;28;20032;-68
2022/04/01 06:23:07;;;;;;;7.57;3.83;;;;;;;2.07;53.48;100006.69;5070164;28;20394;-68
2022/04/01 06:25:40;;;;;;;8.13;4.40;;;;;;;2.18;53.01;100003.81;5062308;28;20044;-68
2022/04/01 06:28:15;;;;;;;11.43;3.28;;;;;;;2.14;53.09;100017.72;5067731;28;20050;-68
2022/04/01 06:30:42;;;;;;;17.33;3.95;;;;;;;2.24;53.07;100016.56;5069209;28;20057;-68
2022/04/01 06:33:20;;;;;;;7.50;3.60;;;;;;;2.46;52.40;100009.84;5070109;28;20041;-68
2022/04/01 06:35:55;;;;;;;7.90;3.80;;;;;;;2.30;52.87;100022.38;5068958;28;20068;-68
2022/04/01 06:38:31;;;;;;;8.15;3.78;;;;;;;2.50;52.08;100014.03;5069767;28;20036;-68
2022/04/01 06:41:06;;;;;;;7.80;3.80;;;;;;;2.55;50.84;100019.09;5069167;28;20068;-68
2022/04/01 06:43:34;;;;;;;6.68;3.70;;;;;;;2.54;51.69;100022.56;5069826;28;20041;-68
2022/04/01 06:46:00;;;;;;;7.47;3.58;;;;;;;2.58;52.38;100029.34;5069270;28;20124;-68
2022/04/01 06:48:27;;;;;;;10.80;3.63;;;;;;;2.79;52.15;100034.69;5069939;28;20063;-68
2022/04/01 06:50:55;;;;;;;4.00;2.42;;;;;;;2.51;51.79;100036.44;5069240;28;20056;-68
2022/04/01 06:53:23;;;;;;;11.27;3.95;;;;;;;2.65;51.75;100036.00;5069584;28;20558;-68
2022/04/01 06:55:49;;;;;;;6.38;3.42;;;;;;;2.63;51.72;100028.28;5068740;28;20049;-68
2022/04/01 06:58:16;;;;;;;9.15;3.45;;;;;;;2.68;51.17;100039.34;5069733;28;20553;-68
2022/04/01 07:00:42;;;;;;;7.93;3.22;;;;;;;2.67;51.64;100041.97;5068720;28;20049;-68
2022/04/01 07:03:10;;;;;;;6.72;3.28;;;;;;;2.37;51.60;100046.31;5068775;28;20097;-68
2022/04/01 07:05:37;;;;;;;8.02;3.83;;;;;;;2.54;51.93;100044.09;5069072;28;20045;-68
2022/04/01 07:08:05;;;;;;;7.38;3.70;;;;;;;2.75;51.41;100040.84;5069203;28;20044;-67
2022/04/01 07:10:33;;;;;;;7.18;3.20;;;;;;;2.80;51.33;100045.91;5069421;28;20060;-67
2022/04/01 07:12:59;;;;;;;9.23;3.53;;;;;;;2.59;51.63;100042.22;5069276;28;20094;-67
2022/04/01 07:15:26;;;;;;;6.68;3.88;;;;;;;2.92;51.60;100041.16;5068827;28;20497;-68
2022/04/01 07:17:54;;;;;;;5.70;2.85;;;;;;;2.79;51.09;100047.63;5069046;28;20112;-68
2022/04/01 07:20:21;;;;;;;7.53;3.58;;;;;;;2.96;51.77;100049.69;5068241;28;20070;-68
2022/04/01 07:22:47;;;;;;;7.55;3.35;;;;;;;2.99;51.46;100052.19;5068725;28;20057;-68
2022/04/01 07:25:14;;;;;;;8.18;3.40;;;;;;;3.12;50.79;100050.91;5069105;28;20048;-68
2022/04/01 07:27:41;;;;;;;7.13;3.50;;;;;;;3.25;50.47;100057.34;5069061;28;20118;-68
2022/04/01 07:30:09;;;;;;;10.50;3.92;;;;;;;3.41;50.22;100060.31;5068238;28;20643;-68
2022/04/01 07:32:37;;;;;;;6.55;3.28;;;;;;;3.81;51.85;100054.59;5068219;28;20044;-68
2022/04/01 07:35:05;;;;;;;10.30;3.90;;;;;;;4.16;50.05;100050.75;5068448;28;20557;-68
2022/04/01 07:37:33;;;;;;;6.70;3.50;;;;;;;3.85;49.69;100046.66;5068648;28;20105;-68
2022/04/01 07:40:00;;;;;;;6.38;2.80;;;;;;;3.65;49.40;100058.63;5068339;28;20056;-68
2022/04/01 07:42:28;;;;;;;8.23;3.97;;;;;;;3.50;49.08;100057.41;5065863;28;20106;-68
2022/04/01 07:44:57;;;;;;;6.75;3.00;;;;;;;3.49;49.42;100055.72;5067659;28;20558;-68
2022/04/01 07:47:23;;;;;;;9.18;3.20;;;;;;;3.48;49.09;100056.59;5068276;28;20470;-68
2022/04/01 07:49:51;;;;;;;7.03;2.95;;;;;;;3.84;49.40;100050.16;5067710;28;20040;-68
2022/04/01 07:52:19;;;;;;;6.20;2.97;;;;;;;3.93;49.45;100056.78;5067395;28;20114;-68
2022/04/01 07:54:46;;;;;;;5.35;2.97;;;;;;;4.03;47.48;100047.75;5068586;28;20049;-68
2022/04/01 07:57:13;;;;;;;5.47;2.78;;;;;;;3.88;48.04;100050.91;5068718;28;20094;-68
2022/04/01 07:59:40;;;;;;;4.18;2.13;;;;;;;3.93;47.38;100060.22;5067852;28;20045;-68
2022/04/01 08:02:09;;;;;;;6.55;3.33;;;;;;;4.05;47.92;100063.28;5067141;28;20049;-68
2022/04/01 08:04:35;;;;;;;4.97;2.47;;;;;;;4.16;48.19;100072.38;5068232;28;20068;-68
2022/04/01 08:07:02;;;;;;;7.38;3.05;;;;;;;3.97;48.73;100071.31;5068440;28;20102;-68
2022/04/01 08:09:28;;;;;;;7.03;3.08;;;;;;;4.25;48.85;100060.81;5066738;28;20117;-68
2022/04/01 08:11:55;;;;;;;6.20;2.45;;;;;;;3.88;48.34;100067.28;5063931;28;20044;-68
2022/04/01 08:14:22;;;;;;;5.85;2.60;;;;;;;3.93;48.46;100074.94;5067241;28;20079;-68
2022/04/01 08:16:49;;;;;;;7.53;2.85;;;;;;;4.09;47.96;100080.44;5059684;28;20405;-68
2022/04/01 08:19:17;;;;;;;5.88;2.60;;;;;;;4.25;47.41;100076.38;5067972;28;20048;-68
2022/04/01 08:21:44;;;;;;;5.50;2.78;;;;;;;4.06;48.12;100083.13;5068337;28;20109;-68
2022/04/01 08:24:11;;;;;;;6.05;2.78;;;;;;;4.58;48.96;100075.09;5067900;28;20480;-68
2022/04/01 08:26:38;;;;;;;14.30;2.63;;;;;;;4.39;46.36;100084.50;5068259;28;20098;-68
2022/04/01 08:29:04;;;;;;;5.47;2.92;;;;;;;4.59;46.07;100084.59;5067728;28;20052;-68
2022/04/01 08:31:33;;;;;;;5.20;2.60;;;;;;;4.64;45.27;100085.28;5067414;28;20048;-68
2022/04/01 08:33:59;;;;;;;7.13;3.10;;;;;;;5.09;47.22;100094.81;5067403;28;20068;-68
2022/04/01 08:36:27;;;;;;;6.07;2.70;;;;;;;4.86;46.20;100093.94;5068234;28;20070;-68
2022/04/01 08:38:53;;;;;;;5.85;2.42;;;;;;;4.81;45.67;100090.66;5067641;28;20060;-68
2022/04/01 08:41:21;;;;;;;9.50;2.67;;;;;;;5.05;44.84;100088.03;5067283;28;20068;-68
2022/04/01 08:43:49;;;;;;;7.60;2.80;;;;;;;5.25;44.38;100101.91;5069836;28;20094;-68
2022/04/01 08:46:17;;;;;;;7.68;2.70;;;;;;;5.49;44.88;100096.63;5070987;28;20082;-68
2022/04/01 08:48:43;;;;;;;6.32;2.88;;;;;;;5.52;43.39;100099.09;5071853;28;20092;-68
2022/04/01 08:51:11;;;;;;;6.28;2.80;;;;;;;5.82;43.55;100100.44;5071701;28;20436;-68
2022/04/01 08:53:41;;;;;;;6.20;2.53;;;;;;;5.82;44.80;100100.44;5072180;28;20673;-68
2022/04/01 08:56:08;;;;;;;5.53;2.60;;;;;;;5.88;43.93;100095.84;5069082;28;20055;-68
2022/04/01 08:58:35;;;;;;;6.72;2.60;;;;;;;5.80;43.21;100110.91;5071399;28;20040;-68
2022/04/01 09:01:03;;;;;;;5.00;2.80;;;;;;;6.21;42.09;100103.94;5071144;28;20044;-68
2022/04/01 09:03:29;;;;;;;6.35;2.75;;;;;;;6.19;41.97;100110.16;5072180;28;20037;-68
2022/04/01 09:05:58;;;;;;;3.95;2.33;;;;;;;6.69;42.27;100093.09;5071592;28;20049;-68
2022/04/01 09:08:27;;;;;;;7.47;2.65;;;;;;;6.89;41.15;100106.97;5071315;28;20082;-68
2022/04/01 09:10:57;;;;;;;8.10;2.70;;;;;;;7.26;41.16;100107.75;5070666;28;20432;-68
2022/04/01 09:13:26;;;;;;;6.07;2.90;;;;;;;7.40;40.15;100104.47;5071062;28;20048;-68
2022/04/01 09:15:53;;;;;;;3.83;2.20;;;;;;;7.75;39.09;100110.59;5066118;28;20089;-68
2022/04/01 09:18:36;;;;;;;3.90;2.17;;;;;;;7.85;38.96;100101.34;5071759;28;20040;-68
2022/04/01 09:21:03;;;;;;;5.40;2.30;;;;;;;8.06;39.31;100104.63;5071228;28;20071;-67
2022/04/01 09:23:30;;;;;;;4.63;2.30;;;;;;;7.74;39.03;100108.88;5071511;28;20074;-68
2022/04/01 09:25:57;;;;;;;5.88;2.17;;;;;;;7.99;36.96;100111.09;5071275;28;20069;-68
2022/04/01 09:28:26;;;;;;;6.60;2.22;;;;;;;7.88;37.29;100103.81;5071341;28;20045;-68
2022/04/01 09:31:01;;;;;;;7.35;2.63;;;;;;;7.86;37.24;100117.88;5070346;28;20055;-67
2022/04/01 09:33:45;;;;;;;4.57;2.50;;;;;;;7.86;36.79;100107.44;5070621;28;20040;-66
2022/04/01 09:36:13;;;;;;;5.22;2.20;;;;;;;7.96;37.92;100116.47;5065546;28;20051;-67
2022/04/01 09:38:41;;;;;;;6.20;2.10;;;;;;;7.72;36.55;100114.16;5070063;28;20041;-67
2022/04/01 09:41:09;;;;;;;7.95;2.25;;;;;;;7.92;35.96;100112.31;5070785;28;20502;-67
2022/04/01 09:43:38;;;;;;;4.68;2.15;;;;;;;7.89;37.42;100115.94;5070998;28;20117;-67
2022/04/01 09:46:06;;;;;;;4.75;3.20;;;;;;;7.55;36.89;100115.94;5069252;28;20716;-67
2022/04/01 09:48:40;;;;;;;4.43;2.20;;;;;;;7.28;37.00;100105.91;5070131;28;20041;-66
2022/04/01 09:51:10;;;;;;;6.97;2.50;;;;;;;7.33;37.72;100105.69;5070563;28;20051;-66
2022/04/01 09:53:36;;;;;;;4.95;2.05;;;;;;;7.46;37.81;100114.63;5070166;28;20040;-66
2022/04/01 09:56:03;;;;;;;4.03;2.00;;;;;;;7.27;37.96;100109.47;5070384;28;20115;-66
2022/04/01 09:58:30;;;;;;;7.18;2.22;;;;;;;7.39;36.16;100110.59;5070389;28;20094;-66
2022/04/01 10:00:57;;;;;;;4.55;2.13;;;;;;;7.38;35.99;100119.38;5068679;28;20460;-66
2022/04/01 10:03:23;;;;;;;5.38;2.20;;;;;;;7.09;35.35;100107.72;5070411;28;20055;-66
2022/04/01 10:05:51;;;;;;;6.25;2.85;;;;;;;7.09;37.38;100105.13;5070040;28;20103;-66
2022/04/01 10:08:18;;;;;;;12.82;2.15;;;;;;;6.83;37.02;100114.16;5070288;28;20040;-66
2022/04/01 10:10:45;;;;;;;5.15;2.08;;;;;;;6.97;37.11;100110.06;5072470;28;20105;-66
2022/04/01 10:13:18;;;;;;;5.45;1.98;;;;;;;6.78;36.29;100102.25;5069622;28;20051;-66
2022/04/01 10:15:46;;;;;;;3.90;1.77;;;;;;;6.76;35.54;100107.53;5068679;28;20477;-66
2022/04/01 10:18:13;;;;;;;4.72;1.90;;;;;;;6.51;35.01;100113.91;5069536;28;20557;-66
2022/04/01 10:20:40;;;;;;;4.38;1.85;;;;;;;6.63;35.82;100116.81;5068136;28;20041;-66
2022/04/01 10:23:08;;;;;;;5.25;2.13;;;;;;;6.57;35.63;100111.06;5069849;28;20048;-66
2022/04/01 10:25:42;;;;;;;5.93;2.17;;;;;;;6.70;36.58;100110.41;5069770;28;20064;-66
2022/04/01 10:28:09;;;;;;;6.25;2.00;;;;;;;6.75;37.23;100113.66;5066417;28;20101;-66
2022/04/01 10:30:36;;;;;;;5.53;1.77;;;;;;;6.80;37.91;100103.00;5068600;28;20049;-67
2022/04/01 10:33:07;;;;;;;3.70;1.80;;;;;;;6.81;35.48;100113.38;5069958;28;20462;-67
2022/04/01 10:35:37;;;;;;;8.03;1.80;;;;;;;6.68;34.44;100108.81;5069607;28;20063;-66
2022/04/01 10:38:19;;;;;;;5.07;1.65;;;;;;;6.62;34.33;100115.13;5069806;28;20068;-67
2022/04/01 10:40:49;;;;;;;5.82;2.15;;;;;;;6.75;34.67;100124.09;5068332;28;20056;-66
2022/04/01 10:43:17;;;;;;;11.32;1.83;;;;;;;6.62;34.87;100115.13;5049646;28;20556;-66
2022/04/01 10:45:58;;;;;;;4.60;1.92;;;;;;;6.50;34.89;100114.84;5063616;28;20516;-66
2022/04/01 10:53:57;;;;;;;7.28;2.00;;;;;;;6.59;34.69;100117.03;5049664;28;20435;-66
2022/04/01 10:56:31;;;;;;;4.90;1.95;;;;;;;6.55;34.23;100118.06;5060739;28;20455;-66
2022/04/01 10:59:02;;;;;;;7.50;1.90;;;;;;;6.72;33.86;100124.25;5069186;28;20052;-66
2022/04/01 11:01:28;;;;;;;5.32;2.00;;;;;;;6.69;33.83;100113.09;5068750;28;20048;-66
2022/04/01 11:04:03;;;;;;;7.32;3.78;;;;;;;6.90;34.19;100119.09;5069662;28;20049;-66
2022/04/01 11:06:29;;;;;;;7.20;3.25;;;;;;;7.21;33.65;100114.94;5068554;28;20040;-66
2022/04/01 11:08:56;;;;;;;4.05;2.08;;;;;;;7.23;33.98;100113.13;5068657;28;20056;-66
2022/04/01 11:11:22;;;;;;;4.47;2.22;;;;;;;7.32;32.84;100112.66;5069210;28;20095;-66
2022/04/01 11:14:03;;;;;;;9.32;2.38;;;;;;;7.52;32.98;100118.69;5068956;28;20048;-66
2022/04/01 11:16:46;;;;;;;5.80;2.33;;;;;;;7.45;32.97;100132.97;5065324;28;20040;-66
2022/04/01 11:19:16;;;;;;;7.03;2.33;;;;;;;7.45;32.54;100123.38;5057257;28;20484;-66
2022/04/01 11:21:44;;;;;;;4.88;2.35;;;;;;;7.51;33.33;100133.50;5069443;28;20048;-66
2022/04/01 11:24:28;;;;;;;10.02;3.13;;;;;;;7.67;32.89;100123.16;5068311;28;20044;-66
2022/04/01 11:26:55;;;;;;;8.05;2.58;;;;;;;8.10;32.43;100120.06;5068740;28;20124;-66
2022/04/01 11:29:22;;;;;;;3.97;1.95;;;;;;;8.18;32.14;100127.50;5068466;28;20044;-66
2022/04/01 11:31:49;;;;;;;7.65;2.13;;;;;;;8.05;33.08;100129.94;5068413;28;20053;-66
2022/04/01 11:34:17;;;;;;;5.97;2.85;;;;;;;8.35;32.93;100122.31;5069250;28;20052;-66
2022/04/01 11:36:44;;;;;;;5.65;2.42;;;;;;;8.24;32.75;100130.63;5068593;28;20102;-66
2022/04/01 11:39:16;;;;;;;5.72;2.33;;;;;;;8.05;31.14;100129.06;5067979;28;20556;-66
2022/04/01 11:41:47;;;;;;;7.20;3.60;;;;;;;7.95;31.15;100120.84;5068049;28;20097;-66
2022/04/01 11:44:15;;;;;;;7.68;3.10;;;;;;;8.38;33.93;100124.75;5068674;28;20045;-66
2022/04/01 11:46:41;;;;;;;7.05;3.83;;;;;;;8.53;33.00;100121.34;5068338;28;20044;-66
2022/04/01 11:49:08;;;;;;;29.80;5.22;;;;;;;8.59;31.31;100122.78;5067720;28;20044;-66
2022/04/01 11:51:38;;;;;;;9.57;5.05;;;;;;;8.56;31.26;100120.31;5068835;28;20601;-66
2022/04/01 11:54:05;;;;;;;9.70;4.88;;;;;;;8.76;30.80;100122.69;5069030;28;20040;-66
2022/04/01 11:56:31;;;;;;;12.90;5.80;;;;;;;8.53;30.76;100115.25;5067265;28;20127;-66
2022/04/01 11:59:00;;;;;;;7.22;4.30;;;;;;;8.82;30.62;100113.69;5065343;28;20098;-66
2022/04/01 12:01:29;;;;;;;13.15;4.80;;;;;;;9.09;32.97;100122.66;5067231;28;20497;-66
2022/04/01 12:04:03;;;;;;;12.38;3.33;;;;;;;9.28;31.74;100120.69;5067314;28;20424;-66
2022/04/01 12:09:14;;;;;;;13.38;4.25;;;;;;;9.06;28.90;100115.81;5067830;28;20055;-66
2022/04/01 12:11:41;;;;;;;14.43;3.58;;;;;;;8.97;31.48;100123.31;5067022;28;20051;-66
2022/04/01 12:14:08;;;;;;;4.10;2.47;;;;;;;9.14;31.11;100126.69;5068025;28;20507;-66
2022/04/01 12:16:40;;;;;;;7.78;2.10;;;;;;;9.08;29.20;100118.34;5067840;28;20068;-66
2022/04/01 12:19:06;;;;;;;6.95;2.67;;;;;;;9.24;29.35;100117.38;5070719;28;20041;-67
2022/04/01 12:21:33;;;;;;;7.25;2.05;;;;;;;9.39;29.92;100126.16;5071555;28;20121;-66
2022/04/01 12:24:00;;;;;;;7.70;4.13;;;;;;;9.24;30.97;100122.63;5071069;28;20067;-66
2022/04/01 12:26:28;;;;;;;5.78;2.70;;;;;;;9.33;29.28;100123.91;5072350;28;20078;-66
2022/04/01 12:28:54;;;;;;;9.52;4.30;;;;;;;9.57;29.64;100119.88;5070909;28;20044;-67
2022/04/01 12:31:22;;;;;;;9.90;4.60;;;;;;;9.34;31.02;100119.50;5072371;28;20048;-67
2022/04/01 12:33:50;;;;;;;9.90;4.88;;;;;;;9.47;31.47;100110.88;5072282;28;20573;-67
2022/04/01 12:36:28;;;;;;;10.63;4.68;;;;;;;9.85;32.71;100108.66;5069376;28;20040;-67
2022/04/01 12:39:01;;;;;;;11.43;4.78;;;;;;;10.02;30.93;100105.88;5051274;28;20501;-67
2022/04/01 12:41:28;;;;;;;5.88;3.40;;;;;;;9.37;28.59;100114.94;5055927;28;20049;-66
2022/04/01 12:43:56;;;;;;;16.90;4.45;;;;;;;9.41;30.47;100113.00;5071426;28;20068;-66
2022/04/01 12:46:29;;;;;;;8.02;5.22;;;;;;;9.47;30.68;100116.09;5071773;28;20049;-66
2022/04/01 12:48:57;;;;;;;7.85;4.95;;;;;;;9.21;30.85;100120.19;5051561;28;20463;-67
2022/04/01 12:51:25;;;;;;;11.38;4.10;;;;;;;9.05;29.55;100116.75;5052072;28;20037;-67
2022/04/01 12:53:53;;;;;;;10.45;4.32;;;;;;;8.73;30.32;100126.34;5063997;28;20113;-66
2022/04/01 12:56:21;;;;;;;8.48;5.38;;;;;;;8.70;29.71;100107.34;5072116;28;20090;-66
2022/04/01 12:58:51;;;;;;;8.55;3.78;;;;;;;8.78;29.51;100106.03;5069924;28;20048;-67
2022/04/01 13:01:24;;;;;;;7.53;4.68;;;;;;;8.58;28.75;100108.84;5070100;28;20044;-67
2022/04/01 13:03:50;;;;;;;7.78;4.70;;;;;;;8.42;28.57;100099.31;5070326;28;20117;-66
2022/04/01 13:06:17;;;;;;;12.27;7.38;;;;;;;8.38;30.74;100106.47;5066967;28;20109;-67
2022/04/01 13:08:44;;;;;;;15.35;6.55;;;;;;;8.75;30.06;100102.72;5070834;28;20074;-66
2022/04/01 13:11:12;;;;;;;8.05;4.85;;;;;;;8.75;28.99;100111.44;5069989;28;20049;-66
2022/04/01 13:13:39;;;;;;;12.82;4.25;;;;;;;8.78;28.77;100105.19;5069582;28;20098;-67